Latest Weather Observations for Mandora

IDW60801

Issued at 10:03 am WST Saturday 20 December 2014 (issued every 30 minutes, with the page automatically refreshed every 10 minutes)

About weather observations | Map of weather stations | Latest weather observations for WA | Other Formats
Station Details ID: 004019 Name: MANDORA Lat: -19.74 Lon: 120.84 Height: 7.5 m
Data from the previous 72 hours. | See also: Recent months at Mandora
Date/Time
WST
Temp
°C
App
Temp
°C
Dew
Point
Rel
Hum
%
Delta-T
°C
Wind Press
QNH
hPa
Press
MSL
hPa
Rain
since 9 am
mm
Dir
 
Spd
km/h
Gust
km/h
Spd
kts
Gust
kts
20/10:00am 36.6 36.6 16.2 29 13.0 W 11 20 6 11 1009.6 - 0.0
20/09:30am 36.3 37.2 16.5 31 12.7 SSW 7 17 4 9 1009.8 - 0.0
20/09:00am 35.1 35.4 15.9 31 12.1 SSW 9 15 5 8 1010.0 1009.9 0.0
20/08:30am 34.9 35.1 16.7 34 11.6 S 11 19 6 10 1010.1 - 0.0
20/08:00am 33.2 32.1 15.2 33 11.2 SSW 15 20 8 11 1010.3 - 0.0
20/07:30am 31.9 31.0 15.8 38 10.0 S 15 22 8 12 1010.4 - 0.0
20/07:00am 30.0 31.2 20.0 55 6.6 SW 13 20 7 11 1010.0 - 0.0
20/06:30am 27.9 31.1 22.4 72 3.7 WSW 9 15 5 8 1009.4 - 0.0
20/06:00am 26.1 29.8 22.6 81 2.4 WSW 7 9 4 5 1009.3 1009.2 0.0
20/05:30am 25.7 29.2 22.2 81 2.3 WSW 7 9 4 5 1009.2 - 0.0
20/05:00am 25.9 29.0 22.2 80 2.5 WSW 9 11 5 6 1008.8 - 0.0
20/04:30am 26.2 29.4 22.3 79 2.6 WSW 9 11 5 6 1008.5 - 0.0
20/04:00am 26.2 29.8 22.3 79 2.6 SW 7 9 4 5 1008.6 - 0.0
20/03:30am 26.4 29.4 22.0 77 2.9 SW 9 11 5 6 1008.5 - 0.0
20/03:00am 26.7 30.0 21.9 75 3.2 WSW 7 11 4 6 1008.4 1008.3 0.0
20/02:30am 26.9 30.2 21.9 74 3.3 SW 7 9 4 5 1008.4 - 0.0
20/02:00am 27.2 30.4 21.7 72 3.7 SW 7 11 4 6 1008.5 - 0.0
20/01:30am 27.3 29.7 21.6 71 3.8 WSW 11 17 6 9 1008.5 - 0.0
20/01:00am 27.2 30.2 21.9 73 3.6 SW 9 13 5 7 1008.8 - 0.0
20/12:30am 27.5 31.1 22.4 73 3.4 WSW 7 11 4 6 1009.3 - 0.0
20/12:00am 27.6 30.4 22.3 73 3.6 WSW 11 13 6 7 1009.8 1009.7 0.0
 
Date/Time
WST
Temp
°C
App
Temp
°C
Dew
Point
Rel
Hum
%
Delta-T
°C
Wind Press
QNH
hPa
Press
MSL
hPa
Rain
since 9 am
mm
Dir
 
Spd
km/h
Gust
km/h
Spd
kts
Gust
kts
19/11:30pm 27.8 31.1 22.5 73 3.6 WSW 9 11 5 6 1010.0 - 0.0
19/11:00pm 28.3 31.6 22.5 71 3.9 W 9 13 5 7 1010.1 - 0.0
19/10:30pm 28.7 31.3 22.7 70 4.1 W 13 17 7 9 1010.2 - 0.0
19/10:00pm 28.8 32.3 22.8 70 4.1 W 9 13 5 7 1010.2 - 0.0
19/09:30pm 29.0 32.0 22.7 69 4.3 W 11 15 6 8 1010.0 - 0.0
19/09:00pm 29.2 31.3 22.4 66 4.6 W 15 20 8 11 1009.8 1009.7 0.0
19/08:30pm 29.3 31.4 22.5 67 4.6 WNW 15 20 8 11 1009.6 - 0.0
19/08:00pm 29.6 31.6 22.3 65 4.9 W 15 20 8 11 1009.4 - 0.0
19/07:30pm 29.8 31.5 22.3 64 5.1 W 17 22 9 12 1009.1 - 0.0
19/07:00pm 30.0 30.9 21.9 62 5.5 W 20 30 11 16 1008.7 - 0.0
19/06:30pm 30.5 31.3 21.8 59 5.9 W 20 30 11 16 1008.4 - 0.0
19/06:00pm 31.0 32.1 22.3 60 5.9 WNW 20 32 11 17 1008.2 1008.1 0.0
19/05:30pm 31.7 33.5 23.5 62 5.7 WNW 20 32 11 17 1008.1 - 0.0
19/05:00pm 32.2 33.5 23.4 59 6.1 WNW 22 32 12 17 1007.9 - 0.0
19/04:30pm 32.9 34.4 23.0 56 6.8 WNW 20 32 11 17 1007.9 - 0.0
19/04:00pm 33.1 33.9 22.5 53 7.3 NW 22 30 12 16 1008.0 - 0.0
19/03:30pm 33.5 34.9 22.9 53 7.3 NW 20 32 11 17 1008.0 - 0.0
19/03:00pm 34.3 35.4 22.4 50 8.2 NW 20 32 11 17 1008.1 1008.0 0.0
19/02:30pm 34.1 35.1 22.8 51 7.8 NW 22 30 12 16 1008.5 - 0.0
19/02:00pm 34.1 35.3 22.5 50 8.0 NW 20 28 11 15 1008.9 - 0.0
19/01:30pm 34.6 36.4 23.3 52 7.9 NW 19 26 10 14 1009.3 - 0.0
19/01:00pm 35.0 36.5 22.7 49 8.5 NNW 19 30 10 16 1009.6 - 0.0
19/12:30pm 34.6 36.4 22.6 49 8.3 NNW 17 24 9 13 1010.1 - 0.0
19/12:00pm 35.0 36.9 22.7 49 8.5 NNW 17 26 9 14 1010.2 1010.1 0.0
19/11:30am 34.4 36.6 21.8 48 8.6 WNW 13 22 7 12 1010.6 - 0.0
19/11:00am 33.7 35.6 22.1 50 7.9 NNW 15 22 8 12 1011.1 - 0.0
19/10:30am 32.9 35.4 21.7 51 7.6 NNW 11 20 6 11 1011.4 - 0.0
19/10:00am 33.2 36.3 22.9 54 7.1 NW 11 19 6 10 1011.5 - 0.0
19/09:30am 32.8 36.7 22.9 56 6.8 WNW 7 15 4 8 1011.6 - 0.0
19/09:00am 32.2 36.2 23.7 61 5.9 W 9 15 5 8 1011.9 1011.8 0.0
19/08:30am 31.1 34.3 23.7 64 5.1 NNW 13 26 7 14 1011.9 - 0.0
19/08:00am 31.0 34.2 23.1 63 5.4 N 11 17 6 9 1011.8 - 0.0
19/07:30am 30.1 33.9 23.5 67 4.6 N 9 15 5 8 1011.7 - 0.0
19/07:00am 29.4 31.9 22.4 66 4.7 N 13 17 7 9 1011.4 - 0.0
19/06:30am 27.2 32.6 23.9 82 2.3 N 2 7 1 4 1010.9 - 0.0
19/06:00am 25.5 30.2 23.4 88 1.4 NE 4 7 2 4 1010.8 1010.7 0.0
19/05:30am 24.7 29.4 22.6 88 1.4 E 2 6 1 3 1010.2 - 0.0
19/05:00am 24.6 29.6 22.5 88 1.4 CALM 0 0 0 0 1009.8 - 0.0
19/04:30am 24.7 28.3 22.4 87 1.5 E 7 9 4 5 1009.6 - 0.0
19/04:00am 25.4 30.5 23.3 88 1.4 W 2 9 1 5 1009.2 - 0.0
19/03:30am 25.7 31.1 23.2 86 1.7 CALM 0 6 0 3 1008.7 - 0.0
19/03:00am 25.9 30.0 23.2 85 1.8 WNW 7 9 4 5 1008.6 1008.5 0.0
19/02:30am 25.3 29.2 23.0 87 1.6 WNW 7 11 4 6 1008.5 - 0.0
19/02:00am 25.5 29.6 23.2 87 1.6 W 7 9 4 5 1008.7 - 0.0
19/01:30am 25.1 28.9 22.8 87 1.6 NW 7 9 4 5 1008.5 - 0.0
19/01:00am 25.4 29.3 22.9 86 1.7 W 7 9 4 5 1008.4 - 0.0
19/12:30am 25.6 29.4 22.7 84 2.0 W 7 7 4 4 1008.8 - 0.0
19/12:00am 26.1 29.9 22.8 82 2.2 W 7 11 4 6 1009.1 1009.0 0.0
 
Date/Time
WST
Temp
°C
App
Temp
°C
Dew
Point
Rel
Hum
%
Delta-T
°C
Wind Press
QNH
hPa
Press
MSL
hPa
Rain
since 9 am
mm
Dir
 
Spd
km/h
Gust
km/h
Spd
kts
Gust
kts
18/11:30pm 26.5 30.4 23.0 81 2.4 W 7 9 4 5 1009.6 - 0.0
18/11:00pm 27.0 30.9 23.0 79 2.7 W 7 11 4 6 1009.7 - 0.0
18/10:30pm 27.1 30.6 22.9 78 2.9 W 9 13 5 7 1009.6 - 0.0
18/10:00pm 27.2 30.7 22.8 77 3.0 WNW 9 13 5 7 1009.6 - 0.0
18/09:30pm 27.3 30.3 22.7 76 3.1 WNW 11 13 6 7 1009.0 - 0.0
18/09:00pm 27.3 30.7 22.7 76 3.1 WNW 9 13 5 7 1008.8 1008.7 0.0
18/08:30pm 27.5 30.7 22.4 73 3.4 NW 9 13 5 7 1008.5 - 0.0
18/08:00pm 27.9 30.9 22.6 73 3.6 WNW 11 15 6 8 1007.8 - 0.0
18/07:30pm 28.2 31.3 22.9 73 3.6 NW 11 17 6 9 1007.8 - 0.0
18/07:00pm 28.5 31.1 22.7 71 3.9 WNW 13 19 7 10 1007.3 - 0.0
18/06:30pm 29.2 31.1 22.7 68 4.4 NW 17 26 9 14 1006.7 - 0.0
18/06:00pm 30.1 31.0 22.0 62 5.5 NW 20 28 11 15 1006.3 1006.2 0.0
18/05:30pm 31.1 32.4 22.4 60 5.9 NW 19 26 10 14 1005.9 - 0.0
18/05:00pm 30.8 31.8 22.1 59 5.9 NW 20 28 11 15 1005.8 - 0.0
18/04:30pm 31.6 32.1 21.2 54 7.0 NNW 20 30 11 16 1006.0 - 0.0
18/04:00pm 31.9 32.0 21.1 52 7.2 NW 22 32 12 17 1006.1 - 0.0
18/03:30pm 32.2 32.4 20.5 50 7.8 NW 20 32 11 17 1006.3 - 0.0
18/03:00pm 32.7 33.6 21.9 53 7.4 NNW 20 28 11 15 1006.5 1006.4 0.0
18/02:30pm 32.9 32.2 19.4 45 8.9 NW 22 33 12 18 1006.9 - 0.0
18/02:00pm 32.4 33.0 21.3 52 7.5 NNW 20 30 11 16 1007.1 - 0.0
18/01:30pm 33.1 33.3 21.3 50 8.0 NNW 22 33 12 18 1007.4 - 0.0
18/01:00pm 33.1 34.0 21.9 51 7.6 NW 20 30 11 16 1007.5 - 0.0
18/12:30pm 33.1 34.2 21.9 51 7.6 NW 19 26 10 14 1007.7 - 0.0
18/12:00pm 32.8 33.6 20.7 49 8.1 NW 17 28 9 15 1007.8 1007.7 0.0
18/11:30am 32.9 35.2 22.7 55 7.0 NW 15 24 8 13 1007.9 - 0.0
18/11:00am 32.7 34.5 21.9 53 7.3 NW 15 24 8 13 1008.2 - 0.0
18/10:30am 31.9 33.6 22.3 56 6.5 NW 17 26 9 14 1008.2 - 0.0
18/10:00am 32.1 33.7 22.2 56 6.7 NW 17 24 9 13 1008.5 - 0.0
18/09:30am 31.6 33.6 22.3 57 6.3 NW 15 20 8 11 1008.7 - 0.0
18/09:00am 31.1 32.8 22.4 60 5.9 WNW 17 24 9 13 1008.5 1008.4 0.0
18/08:30am 30.9 33.0 22.5 61 5.7 WNW 15 22 8 12 1008.6 - 0.0
18/08:00am 30.6 33.0 23.0 64 5.2 WNW 15 20 8 11 1008.4 - 0.0
18/07:30am 29.9 31.9 22.9 66 4.8 WNW 17 24 9 13 1008.2 - 0.0
18/07:00am 29.5 31.6 22.5 66 4.8 WNW 15 22 8 12 1008.0 - 0.0
18/06:30am 28.3 31.8 22.8 72 3.7 WNW 9 17 5 9 1007.6 - 0.0
18/06:00am 25.6 29.2 22.3 82 2.2 WNW 7 11 4 6 1007.2 1007.1 0.0
18/05:30am 25.0 27.9 21.7 82 2.2 WNW 9 11 5 6 1006.6 - 0.0
18/05:00am 25.4 29.0 22.3 83 2.1 WNW 7 9 4 5 1006.4 - 0.0
18/04:30am 25.6 29.3 22.5 83 2.1 W 7 9 4 5 1006.2 - 0.0
18/04:00am 26.0 29.4 22.7 82 2.2 W 9 11 5 6 1006.2 - 0.0
18/03:30am 26.8 30.3 22.8 79 2.7 W 9 13 5 7 1006.3 - 0.0
18/03:00am 26.9 30.3 23.4 81 2.4 W 11 13 6 7 1006.2 1006.1 0.0
18/02:30am 26.8 30.5 23.3 81 2.4 W 9 11 5 6 1006.4 - 0.0
18/02:00am 26.7 30.4 23.2 81 2.4 WNW 9 13 5 7 1006.3 - 0.0
18/01:30am 26.9 30.2 23.2 80 2.5 WNW 11 13 6 7 1006.6 - 0.0
18/01:00am 26.9 30.4 22.9 79 2.7 WNW 9 13 5 7 1006.7 - 0.0
18/12:30am 27.1 30.0 22.5 76 3.1 WNW 11 15 6 8 1006.7 - 0.0
18/12:00am 27.1 30.2 22.9 78 2.9 WNW 11 17 6 9 1006.9 1006.8 0.0
 
Date/Time
WST
Temp
°C
App
Temp
°C
Dew
Point
Rel
Hum
%
Delta-T
°C
Wind Press
QNH
hPa
Press
MSL
hPa
Rain
since 9 am
mm
Dir
 
Spd
km/h
Gust
km/h
Spd
kts
Gust
kts
17/11:30pm 27.3 30.7 23.3 79 2.7 WNW 11 17 6 9 1007.3 - 0.0
17/11:00pm 27.5 31.0 23.5 79 2.7 WNW 11 17 6 9 1007.5 - 0.0
17/10:30pm 27.7 30.9 23.7 79 2.7 WNW 13 17 7 9 1007.6 - 0.0
17/10:00pm 27.8 30.9 23.6 78 2.9 WNW 13 17 7 9 1007.7 - 0.0
17/09:30pm 27.9 30.6 23.5 77 3.0 WNW 15 19 8 10 1007.6 - 0.0
17/09:00pm 28.1 31.4 23.9 78 2.9 WNW 13 19 7 10 1007.5 1007.4 0.0
17/08:30pm 28.1 31.8 23.9 78 2.9 WNW 11 17 6 9 1007.0 - 0.0
17/08:00pm 28.3 31.6 23.9 77 3.0 WNW 13 20 7 11 1006.6 - 0.0
17/07:30pm 28.4 31.8 24.0 77 3.0 NW 13 19 7 10 1006.3 - 0.0
17/07:00pm 28.7 31.5 23.6 74 3.5 NW 15 20 8 11 1005.9 - 0.0
17/06:30pm 29.2 30.8 22.9 69 4.3 NW 19 26 10 14 1005.4 - 0.0
17/06:00pm 29.9 31.5 23.3 67 4.5 NW 20 28 11 15 1004.9 1004.8 0.0
17/05:30pm 30.2 31.5 23.4 67 4.7 NW 22 30 12 16 1004.5 - 0.0
17/05:00pm 30.7 31.8 23.1 64 5.2 NNW 22 32 12 17 1004.2 - 0.0
17/04:30pm 31.1 32.1 22.1 58 6.1 NNW 20 30 11 16 1004.2 - 0.0
17/04:00pm 31.2 32.3 23.0 61 5.6 NW 22 32 12 17 1004.1 - 0.0
17/03:30pm 31.7 33.1 23.5 62 5.7 NW 22 33 12 18 1004.4 - 0.0
17/03:00pm 31.8 33.2 23.6 62 5.7 NNW 22 35 12 19 1004.6 1004.5 0.0
17/02:30pm 32.1 33.3 23.9 62 5.7 NNW 24 33 13 18 1005.0 - 0.0
17/02:00pm 32.5 33.2 22.3 55 7.0 NNW 22 41 12 22 1005.4 - 0.0
17/01:30pm 32.7 34.2 23.1 57 6.6 NW 20 30 11 16 1005.6 - 0.0
17/01:00pm 32.5 32.7 22.0 54 7.1 NW 24 32 13 17 1006.0 - 0.0
17/12:30pm 33.2 34.2 22.9 54 7.1 NW 22 35 12 19 1005.8 - 0.0
17/12:00pm 32.8 33.5 21.6 51 7.6 NW 20 32 11 17 1005.8 1005.7 0.0
17/11:30am 32.2 32.9 22.3 56 6.8 NW 22 39 12 21 1005.8 - 0.0
17/11:00am 32.4 33.6 22.5 56 6.8 NW 20 33 11 18 1006.2 - 0.0
17/10:30am 31.8 33.0 22.2 56 6.5 NW 19 30 10 16 1006.5 - 0.0

Other Formats:

Comma delimited format used in spreadsheet applications
http://www.bom.gov.au/fwo/IDW60801/IDW60801.94200.axf

JavaScript Object Notation format (JSON) in row-major order
http://www.bom.gov.au/fwo/IDW60801/IDW60801.94200.json